sensor_id;sensor_type;location;lat;lon;timestamp;P1;durP1;ratioP1;P2;durP2;ratioP2
13973;SDS011;7060;43.770;4.008;2023-04-25T00:00:06;1.00;;;0.60;;
13973;SDS011;7060;43.770;4.008;2023-04-25T00:02:40;1.40;;;0.53;;
13973;SDS011;7060;43.770;4.008;2023-04-25T00:05:09;2.17;;;0.70;;
13973;SDS011;7060;43.770;4.008;2023-04-25T00:07:38;1.07;;;0.63;;
13973;SDS011;7060;43.770;4.008;2023-04-25T00:10:10;0.77;;;0.60;;
13973;SDS011;7060;43.770;4.008;2023-04-25T00:12:39;1.57;;;0.73;;
13973;SDS011;7060;43.770;4.008;2023-04-25T00:15:09;1.63;;;0.80;;
13973;SDS011;7060;43.770;4.008;2023-04-25T00:17:39;1.60;;;0.70;;
13973;SDS011;7060;43.770;4.008;2023-04-25T00:20:09;1.27;;;0.60;;
13973;SDS011;7060;43.770;4.008;2023-04-25T00:22:39;1.20;;;0.67;;
13973;SDS011;7060;43.770;4.008;2023-04-25T00:25:09;2.57;;;0.80;;
13973;SDS011;7060;43.770;4.008;2023-04-25T00:27:38;1.23;;;0.70;;
13973;SDS011;7060;43.770;4.008;2023-04-25T00:30:09;1.70;;;0.70;;
13973;SDS011;7060;43.770;4.008;2023-04-25T00:32:38;2.10;;;0.63;;
13973;SDS011;7060;43.770;4.008;2023-04-25T00:35:07;1.07;;;0.60;;
13973;SDS011;7060;43.770;4.008;2023-04-25T00:37:36;2.60;;;0.70;;
13973;SDS011;7060;43.770;4.008;2023-04-25T00:40:06;1.13;;;0.70;;
13973;SDS011;7060;43.770;4.008;2023-04-25T00:42:36;1.20;;;0.70;;
13973;SDS011;7060;43.770;4.008;2023-04-25T00:45:06;1.63;;;0.90;;
13973;SDS011;7060;43.770;4.008;2023-04-25T00:47:37;1.83;;;0.70;;
13973;SDS011;7060;43.770;4.008;2023-04-25T00:50:06;1.83;;;0.67;;
13973;SDS011;7060;43.770;4.008;2023-04-25T00:52:37;1.63;;;0.80;;
13973;SDS011;7060;43.770;4.008;2023-04-25T00:55:07;2.03;;;0.80;;
13973;SDS011;7060;43.770;4.008;2023-04-25T00:57:39;1.43;;;0.70;;
13973;SDS011;7060;43.770;4.008;2023-04-25T01:00:08;1.83;;;1.23;;
13973;SDS011;7060;43.770;4.008;2023-04-25T01:02:40;2.33;;;0.60;;
13973;SDS011;7060;43.770;4.008;2023-04-25T01:05:10;1.57;;;0.87;;
13973;SDS011;7060;43.770;4.008;2023-04-25T01:07:38;2.23;;;0.90;;
13973;SDS011;7060;43.770;4.008;2023-04-25T01:10:07;1.70;;;0.70;;
13973;SDS011;7060;43.770;4.008;2023-04-25T01:12:36;1.70;;;0.60;;
13973;SDS011;7060;43.770;4.008;2023-04-25T01:15:07;1.60;;;0.60;;
13973;SDS011;7060;43.770;4.008;2023-04-25T01:17:35;1.40;;;0.70;;
13973;SDS011;7060;43.770;4.008;2023-04-25T01:20:04;2.40;;;1.03;;
13973;SDS011;7060;43.770;4.008;2023-04-25T01:22:37;2.43;;;0.80;;
13973;SDS011;7060;43.770;4.008;2023-04-25T01:25:06;3.63;;;1.20;;
13973;SDS011;7060;43.770;4.008;2023-04-25T01:27:36;2.30;;;1.00;;
13973;SDS011;7060;43.770;4.008;2023-04-25T01:30:05;1.30;;;0.80;;
13973;SDS011;7060;43.770;4.008;2023-04-25T01:32:35;1.93;;;0.87;;
13973;SDS011;7060;43.770;4.008;2023-04-25T01:35:06;1.43;;;0.70;;
13973;SDS011;7060;43.770;4.008;2023-04-25T01:37:38;3.37;;;0.90;;
13973;SDS011;7060;43.770;4.008;2023-04-25T01:40:08;2.13;;;1.00;;
13973;SDS011;7060;43.770;4.008;2023-04-25T01:42:38;1.23;;;0.80;;
13973;SDS011;7060;43.770;4.008;2023-04-25T01:45:09;3.80;;;0.90;;
13973;SDS011;7060;43.770;4.008;2023-04-25T01:47:39;2.03;;;0.63;;
13973;SDS011;7060;43.770;4.008;2023-04-25T01:50:11;4.00;;;0.90;;
13973;SDS011;7060;43.770;4.008;2023-04-25T01:52:41;2.13;;;0.80;;
13973;SDS011;7060;43.770;4.008;2023-04-25T01:55:11;4.77;;;1.30;;
13973;SDS011;7060;43.770;4.008;2023-04-25T01:57:52;8.63;;;1.27;;
13973;SDS011;7060;43.770;4.008;2023-04-25T02:00:28;2.30;;;1.20;;
13973;SDS011;7060;43.770;4.008;2023-04-25T02:02:57;1.23;;;0.93;;
13973;SDS011;7060;43.770;4.008;2023-04-25T02:05:33;1.50;;;0.80;;
13973;SDS011;7060;43.770;4.008;2023-04-25T02:08:08;1.83;;;0.80;;
13973;SDS011;7060;43.770;4.008;2023-04-25T02:10:37;1.67;;;0.90;;
13973;SDS011;7060;43.770;4.008;2023-04-25T02:13:17;0.87;;;0.63;;
13973;SDS011;7060;43.770;4.008;2023-04-25T02:16:21;1.73;;;0.80;;
13973;SDS011;7060;43.770;4.008;2023-04-25T02:18:50;2.20;;;0.80;;
13973;SDS011;7060;43.770;4.008;2023-04-25T02:21:19;1.47;;;0.80;;
13973;SDS011;7060;43.770;4.008;2023-04-25T02:23:49;1.53;;;0.80;;
13973;SDS011;7060;43.770;4.008;2023-04-25T02:26:19;1.77;;;0.90;;
13973;SDS011;7060;43.770;4.008;2023-04-25T02:28:47;1.20;;;0.80;;
13973;SDS011;7060;43.770;4.008;2023-04-25T02:31:18;1.77;;;1.00;;
13973;SDS011;7060;43.770;4.008;2023-04-25T02:33:47;1.07;;;0.70;;
13973;SDS011;7060;43.770;4.008;2023-04-25T02:36:16;1.63;;;0.80;;
13973;SDS011;7060;43.770;4.008;2023-04-25T02:38:45;1.07;;;0.60;;
13973;SDS011;7060;43.770;4.008;2023-04-25T02:41:14;2.83;;;0.70;;
13973;SDS011;7060;43.770;4.008;2023-04-25T02:43:43;1.97;;;0.70;;
13973;SDS011;7060;43.770;4.008;2023-04-25T02:46:11;2.00;;;1.03;;
13973;SDS011;7060;43.770;4.008;2023-04-25T02:48:40;1.37;;;0.80;;
13973;SDS011;7060;43.770;4.008;2023-04-25T02:51:08;1.00;;;0.63;;
13973;SDS011;7060;43.770;4.008;2023-04-25T02:53:37;1.13;;;0.80;;
13973;SDS011;7060;43.770;4.008;2023-04-25T02:56:05;1.67;;;0.70;;
13973;SDS011;7060;43.770;4.008;2023-04-25T02:58:35;1.63;;;0.70;;
13973;SDS011;7060;43.770;4.008;2023-04-25T03:01:04;1.60;;;0.70;;
13973;SDS011;7060;43.770;4.008;2023-04-25T03:03:32;2.17;;;0.80;;
13973;SDS011;7060;43.770;4.008;2023-04-25T03:06:01;3.17;;;0.70;;
13973;SDS011;7060;43.770;4.008;2023-04-25T03:08:32;3.63;;;1.10;;
13973;SDS011;7060;43.770;4.008;2023-04-25T03:11:01;2.20;;;0.73;;
13973;SDS011;7060;43.770;4.008;2023-04-25T03:13:29;2.63;;;0.70;;
13973;SDS011;7060;43.770;4.008;2023-04-25T03:15:59;0.60;;;0.60;;
13973;SDS011;7060;43.770;4.008;2023-04-25T03:18:28;1.07;;;0.77;;
13973;SDS011;7060;43.770;4.008;2023-04-25T03:20:57;1.00;;;0.80;;
13973;SDS011;7060;43.770;4.008;2023-04-25T03:23:26;1.83;;;0.60;;
13973;SDS011;7060;43.770;4.008;2023-04-25T03:25:54;2.40;;;0.90;;
13973;SDS011;7060;43.770;4.008;2023-04-25T03:28:23;0.87;;;0.60;;
13973;SDS011;7060;43.770;4.008;2023-04-25T03:30:52;1.20;;;0.80;;
13973;SDS011;7060;43.770;4.008;2023-04-25T03:33:22;2.33;;;0.80;;
13973;SDS011;7060;43.770;4.008;2023-04-25T03:35:50;1.37;;;0.60;;
13973;SDS011;7060;43.770;4.008;2023-04-25T03:38:19;2.10;;;0.80;;
13973;SDS011;7060;43.770;4.008;2023-04-25T03:40:49;0.90;;;0.80;;
13973;SDS011;7060;43.770;4.008;2023-04-25T03:43:38;1.40;;;0.90;;
13973;SDS011;7060;43.770;4.008;2023-04-25T03:46:10;1.83;;;0.80;;
13973;SDS011;7060;43.770;4.008;2023-04-25T03:48:41;1.30;;;0.70;;
13973;SDS011;7060;43.770;4.008;2023-04-25T03:51:15;1.17;;;0.80;;
13973;SDS011;7060;43.770;4.008;2023-04-25T03:53:44;2.30;;;0.90;;
13973;SDS011;7060;43.770;4.008;2023-04-25T03:56:19;1.37;;;0.90;;
13973;SDS011;7060;43.770;4.008;2023-04-25T03:58:55;3.40;;;1.00;;
13973;SDS011;7060;43.770;4.008;2023-04-25T04:01:26;2.60;;;0.90;;
13973;SDS011;7060;43.770;4.008;2023-04-25T04:03:58;1.27;;;0.93;;
13973;SDS011;7060;43.770;4.008;2023-04-25T04:06:28;2.53;;;0.90;;
13973;SDS011;7060;43.770;4.008;2023-04-25T04:09:03;1.70;;;0.80;;
13973;SDS011;7060;43.770;4.008;2023-04-25T04:11:36;2.87;;;1.40;;
13973;SDS011;7060;43.770;4.008;2023-04-25T04:14:05;1.53;;;0.90;;
13973;SDS011;7060;43.770;4.008;2023-04-25T04:16:36;2.73;;;0.83;;
13973;SDS011;7060;43.770;4.008;2023-04-25T04:19:06;1.80;;;1.03;;
13973;SDS011;7060;43.770;4.008;2023-04-25T04:21:35;1.83;;;0.70;;
13973;SDS011;7060;43.770;4.008;2023-04-25T04:24:07;0.90;;;0.80;;
13973;SDS011;7060;43.770;4.008;2023-04-25T04:26:47;1.77;;;0.90;;
13973;SDS011;7060;43.770;4.008;2023-04-25T04:29:35;2.23;;;0.83;;
13973;SDS011;7060;43.770;4.008;2023-04-25T04:32:10;2.63;;;1.03;;
13973;SDS011;7060;43.770;4.008;2023-04-25T04:34:40;1.50;;;0.80;;
13973;SDS011;7060;43.770;4.008;2023-04-25T04:37:11;1.40;;;1.00;;
13973;SDS011;7060;43.770;4.008;2023-04-25T04:39:42;4.20;;;0.90;;
13973;SDS011;7060;43.770;4.008;2023-04-25T04:42:36;2.17;;;0.63;;
13973;SDS011;7060;43.770;4.008;2023-04-25T04:45:13;2.30;;;1.10;;
13973;SDS011;7060;43.770;4.008;2023-04-25T04:47:55;1.83;;;0.80;;
13973;SDS011;7060;43.770;4.008;2023-04-25T04:50:57;2.40;;;0.90;;
13973;SDS011;7060;43.770;4.008;2023-04-25T04:53:49;2.73;;;0.87;;
13973;SDS011;7060;43.770;4.008;2023-04-25T04:56:18;1.00;;;0.90;;
13973;SDS011;7060;43.770;4.008;2023-04-25T04:59:02;2.03;;;0.83;;
13973;SDS011;7060;43.770;4.008;2023-04-25T05:01:50;1.10;;;1.00;;
13973;SDS011;7060;43.770;4.008;2023-04-25T05:04:41;1.80;;;0.70;;
13973;SDS011;7060;43.770;4.008;2023-04-25T05:07:30;1.87;;;0.70;;
13973;SDS011;7060;43.770;4.008;2023-04-25T05:10:21;1.60;;;1.07;;
13973;SDS011;7060;43.770;4.008;2023-04-25T05:13:18;2.63;;;0.90;;
13973;SDS011;7060;43.770;4.008;2023-04-25T05:16:00;3.40;;;1.00;;
13973;SDS011;7060;43.770;4.008;2023-04-25T05:18:55;2.87;;;0.90;;
13973;SDS011;7060;43.770;4.008;2023-04-25T05:21:53;3.07;;;0.90;;
13973;SDS011;7060;43.770;4.008;2023-04-25T05:24:40;1.23;;;1.10;;
13973;SDS011;7060;43.770;4.008;2023-04-25T05:27:26;0.97;;;0.80;;
13973;SDS011;7060;43.770;4.008;2023-04-25T05:30:18;1.30;;;0.83;;
13973;SDS011;7060;43.770;4.008;2023-04-25T05:32:56;1.90;;;1.00;;
13973;SDS011;7060;43.770;4.008;2023-04-25T05:35:27;1.10;;;0.80;;
13973;SDS011;7060;43.770;4.008;2023-04-25T05:37:56;2.03;;;0.80;;
13973;SDS011;7060;43.770;4.008;2023-04-25T05:40:44;2.00;;;1.00;;
13973;SDS011;7060;43.770;4.008;2023-04-25T05:43:42;2.00;;;0.80;;
13973;SDS011;7060;43.770;4.008;2023-04-25T05:46:37;2.67;;;1.10;;
13973;SDS011;7060;43.770;4.008;2023-04-25T05:49:18;1.73;;;0.83;;
13973;SDS011;7060;43.770;4.008;2023-04-25T05:51:55;1.90;;;1.00;;
13973;SDS011;7060;43.770;4.008;2023-04-25T05:54:46;1.97;;;1.03;;
13973;SDS011;7060;43.770;4.008;2023-04-25T05:57:22;1.40;;;0.90;;
13973;SDS011;7060;43.770;4.008;2023-04-25T05:59:54;2.60;;;0.80;;
13973;SDS011;7060;43.770;4.008;2023-04-25T06:02:39;0.90;;;0.80;;
13973;SDS011;7060;43.770;4.008;2023-04-25T06:05:11;1.87;;;1.00;;
13973;SDS011;7060;43.770;4.008;2023-04-25T06:07:39;3.93;;;1.00;;
13973;SDS011;7060;43.770;4.008;2023-04-25T06:10:08;1.73;;;1.17;;
13973;SDS011;7060;43.770;4.008;2023-04-25T06:12:38;1.40;;;0.90;;
13973;SDS011;7060;43.770;4.008;2023-04-25T06:15:07;1.67;;;0.90;;
13973;SDS011;7060;43.770;4.008;2023-04-25T06:17:54;1.80;;;1.07;;
13973;SDS011;7060;43.770;4.008;2023-04-25T06:20:23;2.47;;;1.10;;
13973;SDS011;7060;43.770;4.008;2023-04-25T06:22:55;3.07;;;1.00;;
13973;SDS011;7060;43.770;4.008;2023-04-25T06:25:50;1.63;;;0.90;;
13973;SDS011;7060;43.770;4.008;2023-04-25T06:28:20;2.93;;;1.10;;
13973;SDS011;7060;43.770;4.008;2023-04-25T06:30:49;1.07;;;0.93;;
13973;SDS011;7060;43.770;4.008;2023-04-25T06:33:19;1.73;;;0.80;;
13973;SDS011;7060;43.770;4.008;2023-04-25T06:35:49;2.77;;;0.93;;
13973;SDS011;7060;43.770;4.008;2023-04-25T06:38:22;2.73;;;1.17;;
13973;SDS011;7060;43.770;4.008;2023-04-25T06:40:52;1.90;;;1.03;;
13973;SDS011;7060;43.770;4.008;2023-04-25T06:43:22;1.13;;;0.97;;
13973;SDS011;7060;43.770;4.008;2023-04-25T06:46:03;2.57;;;1.13;;
13973;SDS011;7060;43.770;4.008;2023-04-25T06:48:37;3.00;;;1.60;;
13973;SDS011;7060;43.770;4.008;2023-04-25T06:51:06;2.73;;;1.13;;
13973;SDS011;7060;43.770;4.008;2023-04-25T06:53:35;5.60;;;1.40;;
13973;SDS011;7060;43.770;4.008;2023-04-25T06:56:07;3.27;;;1.50;;
13973;SDS011;7060;43.770;4.008;2023-04-25T06:58:57;2.90;;;1.20;;
13973;SDS011;7060;43.770;4.008;2023-04-25T07:01:31;1.70;;;0.80;;
13973;SDS011;7060;43.770;4.008;2023-04-25T07:04:03;1.30;;;1.00;;
13973;SDS011;7060;43.770;4.008;2023-04-25T07:06:34;2.33;;;1.20;;
13973;SDS011;7060;43.770;4.008;2023-04-25T07:09:04;1.70;;;1.00;;
13973;SDS011;7060;43.770;4.008;2023-04-25T07:11:33;1.17;;;1.00;;
13973;SDS011;7060;43.770;4.008;2023-04-25T07:14:03;1.53;;;0.90;;
13973;SDS011;7060;43.770;4.008;2023-04-25T07:16:33;1.97;;;1.10;;
13973;SDS011;7060;43.770;4.008;2023-04-25T07:19:01;4.23;;;1.37;;
13973;SDS011;7060;43.770;4.008;2023-04-25T07:21:30;1.80;;;0.90;;
13973;SDS011;7060;43.770;4.008;2023-04-25T07:24:01;1.90;;;0.90;;
13973;SDS011;7060;43.770;4.008;2023-04-25T07:26:35;1.87;;;1.00;;
13973;SDS011;7060;43.770;4.008;2023-04-25T07:29:34;1.80;;;1.10;;
13973;SDS011;7060;43.770;4.008;2023-04-25T07:32:04;3.87;;;0.90;;
13973;SDS011;7060;43.770;4.008;2023-04-25T07:34:32;2.10;;;1.10;;
13973;SDS011;7060;43.770;4.008;2023-04-25T07:37:04;3.97;;;0.70;;
13973;SDS011;7060;43.770;4.008;2023-04-25T07:39:41;2.73;;;0.70;;
13973;SDS011;7060;43.770;4.008;2023-04-25T07:42:10;1.00;;;0.73;;
13973;SDS011;7060;43.770;4.008;2023-04-25T07:44:43;1.47;;;0.80;;
13973;SDS011;7060;43.770;4.008;2023-04-25T07:47:13;1.63;;;0.90;;
13973;SDS011;7060;43.770;4.008;2023-04-25T07:49:42;2.37;;;1.13;;
13973;SDS011;7060;43.770;4.008;2023-04-25T07:52:10;1.33;;;0.70;;
13973;SDS011;7060;43.770;4.008;2023-04-25T07:54:46;1.17;;;0.77;;
13973;SDS011;7060;43.770;4.008;2023-04-25T07:57:20;2.13;;;0.70;;
13973;SDS011;7060;43.770;4.008;2023-04-25T07:59:50;1.97;;;0.80;;
13973;SDS011;7060;43.770;4.008;2023-04-25T08:02:20;1.97;;;0.80;;
13973;SDS011;7060;43.770;4.008;2023-04-25T08:04:48;1.37;;;0.70;;
13973;SDS011;7060;43.770;4.008;2023-04-25T08:07:19;1.50;;;0.70;;
13973;SDS011;7060;43.770;4.008;2023-04-25T08:09:51;2.10;;;0.93;;
13973;SDS011;7060;43.770;4.008;2023-04-25T08:12:31;2.77;;;0.80;;
13973;SDS011;7060;43.770;4.008;2023-04-25T08:15:01;0.53;;;0.40;;
13973;SDS011;7060;43.770;4.008;2023-04-25T08:17:34;1.97;;;0.50;;
13973;SDS011;7060;43.770;4.008;2023-04-25T08:20:03;0.50;;;0.30;;
13973;SDS011;7060;43.770;4.008;2023-04-25T08:22:33;0.30;;;0.20;;
13973;SDS011;7060;43.770;4.008;2023-04-25T08:25:15;0.50;;;0.20;;
13973;SDS011;7060;43.770;4.008;2023-04-25T08:27:44;0.50;;;0.40;;
13973;SDS011;7060;43.770;4.008;2023-04-25T08:30:16;0.50;;;0.30;;
13973;SDS011;7060;43.770;4.008;2023-04-25T08:32:45;0.40;;;0.20;;
13973;SDS011;7060;43.770;4.008;2023-04-25T08:35:34;0.30;;;0.20;;
13973;SDS011;7060;43.770;4.008;2023-04-25T08:38:02;0.20;;;0.20;;
13973;SDS011;7060;43.770;4.008;2023-04-25T08:40:31;2.23;;;0.37;;
13973;SDS011;7060;43.770;4.008;2023-04-25T08:43:12;2.03;;;0.30;;
13973;SDS011;7060;43.770;4.008;2023-04-25T08:45:44;0.53;;;0.20;;
13973;SDS011;7060;43.770;4.008;2023-04-25T08:48:23;0.87;;;0.20;;
13973;SDS011;7060;43.770;4.008;2023-04-25T08:50:56;0.43;;;0.20;;
13973;SDS011;7060;43.770;4.008;2023-04-25T08:53:26;0.20;;;0.20;;
13973;SDS011;7060;43.770;4.008;2023-04-25T08:55:59;0.40;;;0.30;;
13973;SDS011;7060;43.770;4.008;2023-04-25T08:58:33;0.43;;;0.40;;
13973;SDS011;7060;43.770;4.008;2023-04-25T09:01:04;0.40;;;0.40;;
13973;SDS011;7060;43.770;4.008;2023-04-25T09:03:40;1.00;;;0.20;;
13973;SDS011;7060;43.770;4.008;2023-04-25T09:06:11;0.70;;;0.30;;
13973;SDS011;7060;43.770;4.008;2023-04-25T09:08:39;0.30;;;0.20;;
13973;SDS011;7060;43.770;4.008;2023-04-25T09:11:09;0.40;;;0.20;;
13973;SDS011;7060;43.770;4.008;2023-04-25T09:13:37;1.03;;;0.30;;
13973;SDS011;7060;43.770;4.008;2023-04-25T09:16:20;0.77;;;0.27;;
13973;SDS011;7060;43.770;4.008;2023-04-25T09:19:04;0.73;;;0.30;;
13973;SDS011;7060;43.770;4.008;2023-04-25T09:21:34;22.57;;;0.63;;
13973;SDS011;7060;43.770;4.008;2023-04-25T09:24:03;0.60;;;0.13;;
13973;SDS011;7060;43.770;4.008;2023-04-25T09:26:35;0.20;;;0.20;;
13973;SDS011;7060;43.770;4.008;2023-04-25T09:29:06;0.20;;;0.10;;
13973;SDS011;7060;43.770;4.008;2023-04-25T09:31:40;0.17;;;0.17;;
13973;SDS011;7060;43.770;4.008;2023-04-25T09:34:10;0.77;;;0.30;;
13973;SDS011;7060;43.770;4.008;2023-04-25T09:36:48;0.20;;;0.10;;
13973;SDS011;7060;43.770;4.008;2023-04-25T09:39:38;0.10;;;0.10;;
13973;SDS011;7060;43.770;4.008;2023-04-25T09:42:12;0.40;;;0.20;;
13973;SDS011;7060;43.770;4.008;2023-04-25T09:44:42;0.10;;;0.10;;
13973;SDS011;7060;43.770;4.008;2023-04-25T09:47:15;0.80;;;0.20;;
13973;SDS011;7060;43.770;4.008;2023-04-25T09:49:44;0.20;;;0.10;;
13973;SDS011;7060;43.770;4.008;2023-04-25T09:52:14;0.50;;;0.27;;
13973;SDS011;7060;43.770;4.008;2023-04-25T09:55:06;0.70;;;0.20;;
13973;SDS011;7060;43.770;4.008;2023-04-25T09:57:35;0.10;;;0.10;;
13973;SDS011;7060;43.770;4.008;2023-04-25T10:00:07;0.77;;;0.20;;
13973;SDS011;7060;43.770;4.008;2023-04-25T10:02:43;4.00;;;0.20;;
13973;SDS011;7060;43.770;4.008;2023-04-25T10:05:48;0.33;;;0.20;;
13973;SDS011;7060;43.770;4.008;2023-04-25T10:08:19;0.47;;;0.20;;
13973;SDS011;7060;43.770;4.008;2023-04-25T10:10:48;0.73;;;0.20;;
13973;SDS011;7060;43.770;4.008;2023-04-25T10:13:17;0.60;;;0.20;;
13973;SDS011;7060;43.770;4.008;2023-04-25T10:15:47;0.60;;;0.20;;
13973;SDS011;7060;43.770;4.008;2023-04-25T10:18:18;0.43;;;0.30;;
13973;SDS011;7060;43.770;4.008;2023-04-25T10:20:46;2.60;;;0.30;;
13973;SDS011;7060;43.770;4.008;2023-04-25T10:23:15;2.03;;;0.20;;
13973;SDS011;7060;43.770;4.008;2023-04-25T10:25:44;0.20;;;0.20;;
13973;SDS011;7060;43.770;4.008;2023-04-25T10:28:12;0.10;;;0.10;;
13973;SDS011;7060;43.770;4.008;2023-04-25T10:30:56;0.20;;;0.10;;
13973;SDS011;7060;43.770;4.008;2023-04-25T10:33:36;0.57;;;0.20;;
13973;SDS011;7060;43.770;4.008;2023-04-25T10:36:09;1.90;;;0.30;;
13973;SDS011;7060;43.770;4.008;2023-04-25T10:38:39;0.20;;;0.20;;
13973;SDS011;7060;43.770;4.008;2023-04-25T10:41:08;1.17;;;0.20;;
13973;SDS011;7060;43.770;4.008;2023-04-25T10:43:38;0.40;;;0.10;;
13973;SDS011;7060;43.770;4.008;2023-04-25T10:46:14;0.50;;;0.20;;
13973;SDS011;7060;43.770;4.008;2023-04-25T10:48:46;0.30;;;0.20;;
13973;SDS011;7060;43.770;4.008;2023-04-25T10:51:17;0.30;;;0.20;;
13973;SDS011;7060;43.770;4.008;2023-04-25T10:53:56;0.67;;;0.10;;
13973;SDS011;7060;43.770;4.008;2023-04-25T10:56:27;0.10;;;0.10;;
13973;SDS011;7060;43.770;4.008;2023-04-25T10:59:06;0.63;;;0.10;;
13973;SDS011;7060;43.770;4.008;2023-04-25T11:01:37;0.30;;;0.20;;
13973;SDS011;7060;43.770;4.008;2023-04-25T11:07:00;0.30;;;0.10;;
13973;SDS011;7060;43.770;4.008;2023-04-25T11:09:35;0.20;;;0.10;;
13973;SDS011;7060;43.770;4.008;2023-04-25T11:12:07;0.10;;;0.10;;
13973;SDS011;7060;43.770;4.008;2023-04-25T11:14:58;0.33;;;0.17;;
13973;SDS011;7060;43.770;4.008;2023-04-25T11:17:28;0.97;;;0.20;;
13973;SDS011;7060;43.770;4.008;2023-04-25T11:19:59;0.10;;;0.10;;
13973;SDS011;7060;43.770;4.008;2023-04-25T11:22:27;0.50;;;0.20;;
13973;SDS011;7060;43.770;4.008;2023-04-25T11:24:56;0.30;;;0.20;;
13973;SDS011;7060;43.770;4.008;2023-04-25T11:27:25;0.10;;;0.10;;
13973;SDS011;7060;43.770;4.008;2023-04-25T11:29:54;0.50;;;0.20;;
13973;SDS011;7060;43.770;4.008;2023-04-25T11:32:22;0.37;;;0.20;;
13973;SDS011;7060;43.770;4.008;2023-04-25T11:34:53;0.10;;;0.10;;
13973;SDS011;7060;43.770;4.008;2023-04-25T11:37:23;0.30;;;0.30;;
13973;SDS011;7060;43.770;4.008;2023-04-25T11:39:51;0.37;;;0.20;;
13973;SDS011;7060;43.770;4.008;2023-04-25T11:42:20;0.20;;;0.20;;
13973;SDS011;7060;43.770;4.008;2023-04-25T11:44:48;5.57;;;0.60;;
13973;SDS011;7060;43.770;4.008;2023-04-25T11:47:17;1.60;;;0.20;;
13973;SDS011;7060;43.770;4.008;2023-04-25T11:49:45;0.10;;;0.10;;
13973;SDS011;7060;43.770;4.008;2023-04-25T11:52:14;0.23;;;0.17;;
13973;SDS011;7060;43.770;4.008;2023-04-25T11:54:44;0.22;;;0.20;;
13973;SDS011;7060;43.770;4.008;2023-04-25T11:57:13;0.63;;;0.20;;
13973;SDS011;7060;43.770;4.008;2023-04-25T11:59:41;0.20;;;0.10;;
13973;SDS011;7060;43.770;4.008;2023-04-25T12:02:23;2.03;;;0.20;;
13973;SDS011;7060;43.770;4.008;2023-04-25T12:04:52;1.05;;;0.30;;
13973;SDS011;7060;43.770;4.008;2023-04-25T12:07:21;0.60;;;0.30;;
13973;SDS011;7060;43.770;4.008;2023-04-25T12:09:56;1.20;;;0.30;;
13973;SDS011;7060;43.770;4.008;2023-04-25T12:12:27;0.35;;;0.20;;
13973;SDS011;7060;43.770;4.008;2023-04-25T12:14:55;0.47;;;0.30;;
13973;SDS011;7060;43.770;4.008;2023-04-25T12:17:23;0.40;;;0.20;;
13973;SDS011;7060;43.770;4.008;2023-04-25T12:19:52;0.30;;;0.20;;
13973;SDS011;7060;43.770;4.008;2023-04-25T12:22:21;0.70;;;0.20;;
13973;SDS011;7060;43.770;4.008;2023-04-25T12:24:50;0.50;;;0.20;;
13973;SDS011;7060;43.770;4.008;2023-04-25T12:27:23;0.32;;;0.20;;
13973;SDS011;7060;43.770;4.008;2023-04-25T12:29:55;0.22;;;0.20;;
13973;SDS011;7060;43.770;4.008;2023-04-25T12:32:24;0.40;;;0.30;;
13973;SDS011;7060;43.770;4.008;2023-04-25T12:34:53;0.35;;;0.20;;
13973;SDS011;7060;43.770;4.008;2023-04-25T12:37:21;1.10;;;0.47;;
13973;SDS011;7060;43.770;4.008;2023-04-25T12:39:50;0.20;;;0.15;;
13973;SDS011;7060;43.770;4.008;2023-04-25T12:42:18;0.20;;;0.10;;
13973;SDS011;7060;43.770;4.008;2023-04-25T12:44:48;0.10;;;0.10;;
13973;SDS011;7060;43.770;4.008;2023-04-25T12:47:16;2.00;;;0.30;;
13973;SDS011;7060;43.770;4.008;2023-04-25T12:49:45;0.20;;;0.10;;
13973;SDS011;7060;43.770;4.008;2023-04-25T12:52:13;0.60;;;0.20;;
13973;SDS011;7060;43.770;4.008;2023-04-25T12:54:42;0.85;;;0.20;;
13973;SDS011;7060;43.770;4.008;2023-04-25T12:57:10;1.00;;;0.20;;
13973;SDS011;7060;43.770;4.008;2023-04-25T12:59:39;0.57;;;0.22;;
13973;SDS011;7060;43.770;4.008;2023-04-25T13:02:08;0.17;;;0.10;;
13973;SDS011;7060;43.770;4.008;2023-04-25T13:04:37;0.30;;;0.20;;
13973;SDS011;7060;43.770;4.008;2023-04-25T13:07:06;0.32;;;0.10;;
13973;SDS011;7060;43.770;4.008;2023-04-25T13:09:34;0.20;;;0.10;;
13973;SDS011;7060;43.770;4.008;2023-04-25T13:12:03;0.28;;;0.20;;
13973;SDS011;7060;43.770;4.008;2023-04-25T13:14:32;0.10;;;0.10;;
13973;SDS011;7060;43.770;4.008;2023-04-25T13:17:00;0.80;;;0.20;;
13973;SDS011;7060;43.770;4.008;2023-04-25T13:19:30;1.25;;;0.20;;
13973;SDS011;7060;43.770;4.008;2023-04-25T13:21:58;0.20;;;0.20;;
13973;SDS011;7060;43.770;4.008;2023-04-25T13:24:27;0.22;;;0.17;;
13973;SDS011;7060;43.770;4.008;2023-04-25T13:26:56;0.32;;;0.17;;
13973;SDS011;7060;43.770;4.008;2023-04-25T13:29:24;0.20;;;0.20;;
13973;SDS011;7060;43.770;4.008;2023-04-25T13:31:53;0.60;;;0.25;;
13973;SDS011;7060;43.770;4.008;2023-04-25T13:34:24;0.30;;;0.10;;
13973;SDS011;7060;43.770;4.008;2023-04-25T13:36:54;0.65;;;0.25;;
13973;SDS011;7060;43.770;4.008;2023-04-25T13:39:23;0.10;;;0.10;;
13973;SDS011;7060;43.770;4.008;2023-04-25T13:41:51;0.50;;;0.25;;
13973;SDS011;7060;43.770;4.008;2023-04-25T13:44:20;0.22;;;0.20;;
13973;SDS011;7060;43.770;4.008;2023-04-25T13:46:48;0.30;;;0.20;;
13973;SDS011;7060;43.770;4.008;2023-04-25T13:49:17;0.35;;;0.10;;
13973;SDS011;7060;43.770;4.008;2023-04-25T13:51:45;0.50;;;0.30;;
13973;SDS011;7060;43.770;4.008;2023-04-25T13:54:15;0.32;;;0.20;;
13973;SDS011;7060;43.770;4.008;2023-04-25T13:56:44;0.30;;;0.20;;
13973;SDS011;7060;43.770;4.008;2023-04-25T13:59:13;0.40;;;0.30;;
13973;SDS011;7060;43.770;4.008;2023-04-25T14:01:41;1.88;;;0.35;;
13973;SDS011;7060;43.770;4.008;2023-04-25T14:04:09;0.30;;;0.13;;
13973;SDS011;7060;43.770;4.008;2023-04-25T14:06:38;0.60;;;0.20;;
13973;SDS011;7060;43.770;4.008;2023-04-25T14:09:08;0.73;;;0.20;;
13973;SDS011;7060;43.770;4.008;2023-04-25T14:11:38;0.55;;;0.20;;
13973;SDS011;7060;43.770;4.008;2023-04-25T14:14:07;0.35;;;0.20;;
13973;SDS011;7060;43.770;4.008;2023-04-25T14:16:35;0.30;;;0.30;;
13973;SDS011;7060;43.770;4.008;2023-04-25T14:19:04;3.70;;;0.40;;
13973;SDS011;7060;43.770;4.008;2023-04-25T14:21:32;0.30;;;0.20;;
13973;SDS011;7060;43.770;4.008;2023-04-25T14:24:01;0.73;;;0.38;;
13973;SDS011;7060;43.770;4.008;2023-04-25T14:26:32;0.40;;;0.40;;
13973;SDS011;7060;43.770;4.008;2023-04-25T14:29:03;0.30;;;0.30;;
13973;SDS011;7060;43.770;4.008;2023-04-25T14:31:33;0.80;;;0.30;;
13973;SDS011;7060;43.770;4.008;2023-04-25T14:34:02;1.23;;;0.30;;
13973;SDS011;7060;43.770;4.008;2023-04-25T14:36:30;0.20;;;0.20;;
13973;SDS011;7060;43.770;4.008;2023-04-25T14:38:59;0.73;;;0.43;;
13973;SDS011;7060;43.770;4.008;2023-04-25T14:41:28;0.65;;;0.30;;
13973;SDS011;7060;43.770;4.008;2023-04-25T14:43:56;1.25;;;0.30;;
13973;SDS011;7060;43.770;4.008;2023-04-25T14:46:26;0.70;;;0.30;;
13973;SDS011;7060;43.770;4.008;2023-04-25T14:48:55;0.80;;;0.35;;
13973;SDS011;7060;43.770;4.008;2023-04-25T14:51:24;2.92;;;0.40;;
13973;SDS011;7060;43.770;4.008;2023-04-25T14:53:53;2.15;;;0.50;;
13973;SDS011;7060;43.770;4.008;2023-04-25T14:56:21;1.00;;;0.40;;
13973;SDS011;7060;43.770;4.008;2023-04-25T14:58:50;0.60;;;0.30;;
13973;SDS011;7060;43.770;4.008;2023-04-25T15:01:18;0.63;;;0.40;;
13973;SDS011;7060;43.770;4.008;2023-04-25T15:03:50;4.20;;;0.47;;
13973;SDS011;7060;43.770;4.008;2023-04-25T15:06:19;2.15;;;0.50;;
13973;SDS011;7060;43.770;4.008;2023-04-25T15:08:48;1.35;;;0.40;;
13973;SDS011;7060;43.770;4.008;2023-04-25T15:11:16;1.10;;;0.40;;
13973;SDS011;7060;43.770;4.008;2023-04-25T15:13:47;0.70;;;0.28;;
13973;SDS011;7060;43.770;4.008;2023-04-25T15:16:15;1.25;;;0.50;;
13973;SDS011;7060;43.770;4.008;2023-04-25T15:18:44;1.08;;;0.38;;
13973;SDS011;7060;43.770;4.008;2023-04-25T15:21:13;1.10;;;0.30;;
13973;SDS011;7060;43.770;4.008;2023-04-25T15:23:42;0.30;;;0.30;;
13973;SDS011;7060;43.770;4.008;2023-04-25T15:26:10;2.45;;;0.50;;
13973;SDS011;7060;43.770;4.008;2023-04-25T15:28:39;0.50;;;0.30;;
13973;SDS011;7060;43.770;4.008;2023-04-25T15:31:08;0.85;;;0.40;;
13973;SDS011;7060;43.770;4.008;2023-04-25T15:33:36;0.50;;;0.32;;